Terminal Aerodrome Forecast
Issued by NWS Knoxville/Tri Cities, TN

Home | Current Version | Previous Version | Text Only | Print | Product List | Glossary On
Versions: 1 2 3 4 5 6 7 8 9 10 11 12 13 14 15 16 17 18 19 20 21
000
FTUS44 KMRX 220347 AAA
TAFCHA
TAF AMD
KCHA 220347Z 2204/2224 VRB03KT P6SM BKN250
     FM220600 VRB03KT 4SM BR OVC020
     FM220800 VRB05KT 3SM -TSRA BKN010CB
     FM221200 16008KT 6SM -SHRA BR BKN020=

USA.gov is the U.S. government's official web portal to all federal, state and local government web resources and services.